TimeEST,TemperatureF,Dew PointF,Humidity,Sea Level PressureIn,VisibilityMPH,Wind Direction,Wind SpeedMPH,Gust SpeedMPH,PrecipitationIn,Events,Conditions,WindDirDegrees,DateUTC
12:54 AM,26.1,1.9,35,30.16,10.0,West,15.0,-,N/A,,Clear,270,2013-02-19 05:54:00
1:54 AM,27.0,1.0,33,30.16,10.0,West,16.1,-,N/A,,Clear,260,2013-02-19 06:54:00
2:54 AM,28.0,3.9,36,30.16,10.0,West,10.4,-,N/A,,Clear,270,2013-02-19 07:54:00
3:54 AM,27.0,5.0,39,30.15,10.0,West,9.2,-,N/A,,Partly Cloudy,280,2013-02-19 08:54:00
4:54 AM,27.0,7.0,43,30.14,10.0,West,4.6,-,N/A,,Mostly Cloudy,270,2013-02-19 09:54:00
5:54 AM,27.0,9.0,47,30.14,10.0,SW,8.1,-,N/A,,Overcast,230,2013-02-19 10:54:00
6:54 AM,28.9,10.0,45,30.12,10.0,SW,8.1,-,N/A,,Mostly Cloudy,230,2013-02-19 11:54:00
7:54 AM,30.0,12.9,49,30.11,10.0,SW,10.4,-,N/A,,Scattered Clouds,230,2013-02-19 12:54:00
8:54 AM,33.1,15.1,48,30.11,10.0,SW,9.2,-,N/A,,Partly Cloudy,220,2013-02-19 13:54:00
9:54 AM,36.0,19.9,52,30.09,10.0,SSW,9.2,-,N/A,,Partly Cloudy,210,2013-02-19 14:54:00
10:54 AM,39.9,25.0,55,30.06,10.0,South,10.4,17.3,N/A,,Mostly Cloudy,190,2013-02-19 15:54:00
11:54 AM,42.1,27.0,55,30.03,10.0,South,9.2,-,N/A,,Overcast,180,2013-02-19 16:54:00
1:54 PM,44.1,28.9,55,29.95,10.0,SSW,11.5,-,N/A,,Overcast,200,2013-02-19 18:54:00
2:54 PM,44.1,28.9,55,29.91,10.0,South,11.5,-,N/A,,Overcast,190,2013-02-19 19:54:00
3:54 PM,44.1,32.0,63,29.88,10.0,South,13.8,-,N/A,,Overcast,180,2013-02-19 20:54:00
4:54 PM,43.0,34.0,71,29.85,10.0,South,12.7,-,0.01,Rain,Light Rain,180,2013-02-19 21:54:00
5:54 PM,39.9,35.1,83,29.81,10.0,SE,11.5,-,0.00,Rain,Light Rain,140,2013-02-19 22:54:00
7:26 PM,39.2,37.4,93,29.75,5.0,South,6.9,-,0.07,Rain,Light Rain,180,2013-02-20 00:26:00
7:44 PM,39.2,37.4,93,29.73,5.0,SE,6.9,-,0.09,Rain,Light Rain,130,2013-02-20 00:44:00
7:54 PM,39.9,37.0,89,29.73,3.0,SE,6.9,-,0.11,Rain,Rain,130,2013-02-20 00:54:00
8:54 PM,39.9,37.9,93,29.65,7.0,SE,13.8,-,0.09,Rain,Light Rain,140,2013-02-20 01:54:00
9:27 PM,41.0,39.2,93,29.64,4.0,South,8.1,-,0.02,Rain,Rain,190,2013-02-20 02:27:00
9:33 PM,41.0,39.2,93,29.64,3.0,SSW,9.2,-,0.04,Rain,Heavy Rain,200,2013-02-20 02:33:00
9:39 PM,41.0,39.2,93,29.64,2.0,SSW,6.9,-,0.07,Rain,Heavy Rain,210,2013-02-20 02:39:00
9:52 PM,42.8,39.2,87,29.62,3.0,SSW,6.9,-,0.14,Rain,Rain,210,2013-02-20 02:52:00
9:54 PM,42.1,41.0,96,29.62,4.0,SSW,6.9,-,0.15,Rain,Rain,200,2013-02-20 02:54:00
10:42 PM,42.8,41.0,93,29.60,6.0,SW,4.6,-,0.05,Rain,Light Rain,230,2013-02-20 03:42:00
10:54 PM,44.1,42.1,93,29.59,7.0,SW,4.6,-,0.06,Rain,Light Rain,230,2013-02-20 03:54:00
11:19 PM,41.0,41.0,100,29.59,1.8,SSW,6.9,-,0.01,Rain,Light Rain,210,2013-02-20 04:19:00
11:33 PM,41.0,39.2,93,29.60,3.0,SW,6.9,-,0.01,Rain,Light Rain,220,2013-02-20 04:33:00
11:49 PM,42.8,41.0,93,29.58,5.0,WSW,6.9,-,0.01,Rain,Light Rain,250,2013-02-20 04:49:00
11:54 PM,42.1,41.0,96,29.58,8.0,SW,8.1,-,0.01,Rain,Light Rain,230,2013-02-20 04:54:00